createdAt,value
2023-04-19T00:00:43.584Z,27.84
2023-04-19T00:01:43.635Z,27.88
2023-04-19T00:02:43.645Z,27.87
2023-04-19T00:03:43.811Z,27.83
2023-04-19T00:04:43.786Z,27.84
2023-04-19T00:05:43.534Z,27.85
2023-04-19T00:06:43.557Z,27.85
2023-04-19T00:07:43.528Z,27.84
2023-04-19T00:08:43.560Z,27.82
2023-04-19T00:09:43.510Z,27.83
2023-04-19T00:10:43.526Z,27.88
2023-04-19T00:11:43.528Z,27.83
2023-04-19T00:12:43.503Z,27.85
2023-04-19T00:13:43.520Z,27.83
2023-04-19T00:14:43.520Z,27.85
2023-04-19T00:15:43.504Z,27.83
2023-04-19T00:16:43.482Z,27.85
2023-04-19T00:17:43.501Z,27.85
2023-04-19T00:18:43.477Z,27.80
2023-04-19T00:19:43.455Z,27.85
2023-04-19T00:20:43.482Z,27.87
2023-04-19T00:21:43.426Z,27.84
2023-04-19T00:22:43.432Z,27.84
2023-04-19T00:23:43.438Z,27.82
2023-04-19T00:24:43.387Z,27.84
2023-04-19T00:25:43.418Z,27.84
2023-04-19T00:26:43.426Z,27.87
2023-04-19T00:27:43.362Z,27.87
2023-04-19T00:28:43.390Z,27.84
2023-04-19T00:29:43.382Z,27.85
2023-04-19T00:30:43.525Z,27.84
2023-04-19T00:31:43.325Z,27.82
2023-04-19T00:32:43.410Z,27.85
2023-04-19T00:33:43.341Z,27.90
2023-04-19T00:34:43.331Z,27.85
2023-04-19T00:35:43.307Z,27.82
2023-04-19T00:36:43.345Z,27.87
2023-04-19T00:37:43.310Z,27.81
2023-04-19T00:38:43.294Z,27.81
2023-04-19T00:39:43.337Z,27.83
2023-04-19T00:40:43.311Z,27.88
2023-04-19T00:41:43.292Z,27.85
2023-04-19T00:42:43.300Z,27.85
2023-04-19T00:43:43.280Z,27.84
2023-04-19T00:44:43.270Z,27.87
2023-04-19T00:45:43.341Z,27.84
2023-04-19T00:46:43.307Z,27.82
2023-04-19T00:47:43.296Z,27.88
2023-04-19T00:48:43.300Z,27.90
2023-04-19T00:49:43.290Z,27.85
2023-04-19T00:50:43.288Z,27.85
2023-04-19T00:51:43.243Z,27.84
2023-04-19T00:52:43.224Z,27.82
2023-04-19T00:53:43.235Z,27.80
2023-04-19T00:54:43.266Z,27.85
2023-04-19T00:55:43.276Z,27.81
2023-04-19T00:56:43.239Z,27.85
2023-04-19T00:57:43.212Z,27.85
2023-04-19T00:58:43.260Z,27.85
2023-04-19T00:59:43.248Z,27.80
2023-04-19T01:00:43.217Z,27.88
2023-04-19T01:01:43.243Z,27.85
2023-04-19T01:02:43.359Z,27.84
2023-04-19T01:03:43.428Z,27.82
2023-04-19T01:04:43.236Z,27.84
2023-04-19T01:05:43.247Z,27.84
2023-04-19T01:06:43.213Z,27.81
2023-04-19T01:07:43.215Z,27.87
2023-04-19T01:08:43.217Z,27.85
2023-04-19T01:09:43.240Z,27.84
2023-04-19T01:10:43.189Z,27.82
2023-04-19T01:11:43.681Z,27.82
2023-04-19T01:12:43.182Z,27.82
2023-04-19T01:13:43.187Z,27.86
2023-04-19T01:14:43.211Z,27.82
2023-04-19T01:15:43.806Z,27.87
2023-04-19T01:16:43.143Z,27.84
2023-04-19T01:17:43.213Z,27.82
2023-04-19T01:18:43.180Z,27.80
2023-04-19T01:19:43.157Z,27.87
2023-04-19T01:20:43.203Z,27.84
2023-04-19T01:21:43.155Z,27.84
2023-04-19T01:22:43.155Z,27.82
2023-04-19T01:23:43.164Z,27.79
2023-04-19T01:24:43.170Z,27.82
2023-04-19T01:25:43.170Z,27.82
2023-04-19T01:26:43.116Z,27.81
2023-04-19T01:27:43.139Z,27.82
2023-04-19T01:28:43.133Z,27.81
2023-04-19T01:29:43.105Z,27.81
2023-04-19T01:30:43.100Z,27.80
2023-04-19T01:31:43.214Z,27.84
2023-04-19T01:32:43.086Z,27.78
2023-04-19T01:33:43.074Z,27.81
2023-04-19T01:34:43.123Z,27.84
2023-04-19T01:35:43.102Z,27.78
2023-04-19T01:36:43.076Z,27.77
2023-04-19T01:37:43.114Z,27.81
2023-04-19T01:38:43.090Z,27.85
2023-04-19T01:39:43.126Z,27.76
2023-04-19T01:40:43.081Z,27.78
2023-04-19T01:41:43.055Z,27.85
2023-04-19T01:42:43.089Z,27.80
2023-04-19T01:43:43.099Z,27.81
2023-04-19T01:44:43.093Z,27.84
2023-04-19T01:45:43.053Z,27.82
2023-04-19T01:46:43.101Z,27.78
2023-04-19T01:47:43.133Z,27.78
2023-04-19T01:48:43.132Z,27.81
2023-04-19T01:49:43.114Z,27.76
2023-04-19T01:50:43.106Z,27.79
2023-04-19T01:51:43.103Z,27.78
2023-04-19T01:52:43.116Z,27.74
2023-04-19T01:53:43.094Z,27.82
2023-04-19T01:54:43.098Z,27.78
2023-04-19T01:55:43.097Z,27.81
2023-04-19T01:56:43.099Z,27.84
2023-04-19T01:57:43.067Z,27.78
2023-04-19T01:58:43.069Z,27.81
2023-04-19T01:59:43.109Z,27.76
2023-04-19T02:00:43.116Z,27.81
2023-04-19T02:01:43.127Z,27.78
2023-04-19T02:02:43.172Z,27.80
2023-04-19T02:03:43.354Z,27.73
2023-04-19T02:04:43.100Z,27.80
2023-04-19T02:05:43.072Z,27.77
2023-04-19T02:06:43.048Z,27.81
2023-04-19T02:07:43.056Z,27.77
2023-04-19T02:08:43.079Z,27.82
2023-04-19T02:09:43.081Z,27.81
2023-04-19T02:10:43.032Z,27.82
2023-04-19T02:11:43.055Z,27.78
2023-04-19T02:12:43.095Z,27.77
2023-04-19T02:13:43.067Z,27.78
2023-04-19T02:14:43.069Z,27.80
2023-04-19T02:15:43.041Z,27.81
2023-04-19T02:16:43.095Z,27.76
2023-04-19T02:17:43.063Z,27.81
2023-04-19T02:18:43.118Z,27.80
2023-04-19T02:19:43.059Z,27.85
2023-04-19T02:20:43.065Z,27.77
2023-04-19T02:21:43.114Z,27.77
2023-04-19T02:22:43.085Z,27.77
2023-04-19T02:23:43.060Z,27.81
2023-04-19T02:24:43.082Z,27.78
2023-04-19T02:25:43.090Z,27.80
2023-04-19T02:26:43.054Z,27.79
2023-04-19T02:27:43.106Z,27.80
2023-04-19T02:28:43.071Z,27.74
2023-04-19T02:29:43.069Z,27.75
2023-04-19T02:30:43.054Z,27.80
2023-04-19T02:31:43.107Z,27.78
2023-04-19T02:32:43.092Z,27.78
2023-04-19T02:33:43.057Z,27.77
2023-04-19T02:34:43.040Z,27.77
2023-04-19T02:35:43.015Z,27.78
2023-04-19T02:36:43.014Z,27.82
2023-04-19T02:37:43.072Z,27.81
2023-04-19T02:38:43.051Z,27.78
2023-04-19T02:39:42.999Z,27.76
2023-04-19T02:40:43.020Z,27.81
2023-04-19T02:41:43.053Z,27.80
2023-04-19T02:42:43.039Z,27.75
2023-04-19T02:43:42.995Z,27.82
2023-04-19T02:44:43.005Z,27.77
2023-04-19T02:45:43.039Z,27.77
2023-04-19T02:46:43.035Z,27.80
2023-04-19T02:47:43.038Z,27.77
2023-04-19T02:48:43.032Z,27.81
2023-04-19T02:49:43.007Z,27.77
2023-04-19T02:50:43.052Z,27.75
2023-04-19T02:51:43.024Z,27.77
2023-04-19T02:52:43.019Z,27.76
2023-04-19T02:53:43.039Z,27.74
2023-04-19T02:54:43.019Z,27.78
2023-04-19T02:55:42.991Z,27.76
2023-04-19T02:56:43.008Z,27.74
2023-04-19T02:57:42.994Z,27.78
2023-04-19T02:58:43.005Z,27.74
2023-04-19T02:59:43.002Z,27.73
2023-04-19T03:00:42.990Z,27.77
2023-04-19T03:01:43.067Z,27.75
2023-04-19T03:02:43.068Z,27.77
2023-04-19T03:03:43.107Z,27.78
2023-04-19T03:04:42.984Z,27.77
2023-04-19T03:05:42.993Z,27.76
2023-04-19T03:06:42.948Z,27.75
2023-04-19T03:07:44.579Z,27.74
2023-04-19T03:08:42.972Z,27.74
2023-04-19T03:09:42.972Z,27.76
2023-04-19T03:10:42.980Z,27.76
2023-04-19T03:11:43.009Z,27.74
2023-04-19T03:12:42.953Z,27.77
2023-04-19T03:13:42.955Z,27.76
2023-04-19T03:14:42.966Z,27.75
2023-04-19T03:15:43.006Z,27.75
2023-04-19T03:16:42.999Z,27.78
2023-04-19T03:17:43.073Z,27.75
2023-04-19T03:18:42.995Z,27.74
2023-04-19T03:19:43.027Z,27.76
2023-04-19T03:20:43.847Z,27.80
2023-04-19T03:21:43.108Z,27.73
2023-04-19T03:22:43.000Z,27.74
2023-04-19T03:23:43.024Z,27.75
2023-04-19T03:24:43.029Z,27.73
2023-04-19T03:25:42.990Z,27.74
2023-04-19T03:26:42.979Z,27.79
2023-04-19T03:27:42.985Z,27.74
2023-04-19T03:28:42.969Z,27.74
2023-04-19T03:29:42.972Z,27.76
2023-04-19T03:30:42.970Z,27.75
2023-04-19T03:31:43.186Z,27.75
2023-04-19T03:32:43.041Z,27.73
2023-04-19T03:33:42.955Z,27.77
2023-04-19T03:34:42.969Z,27.74
2023-04-19T03:35:43.067Z,27.75
2023-04-19T03:36:42.997Z,27.69
2023-04-19T03:37:42.988Z,27.73
2023-04-19T03:38:42.971Z,27.75
2023-04-19T03:39:42.979Z,27.74
2023-04-19T03:40:42.942Z,27.74
2023-04-19T03:41:42.965Z,27.73
2023-04-19T03:42:42.961Z,27.75
2023-04-19T03:43:42.912Z,27.70
2023-04-19T03:44:42.928Z,27.75
2023-04-19T03:45:42.940Z,27.70
2023-04-19T03:46:43.012Z,27.74
2023-04-19T03:47:42.966Z,27.74
2023-04-19T03:48:42.927Z,27.78
2023-04-19T03:49:42.895Z,27.74
2023-04-19T03:50:42.909Z,27.73
2023-04-19T03:51:42.913Z,27.71
2023-04-19T03:52:42.926Z,27.75
2023-04-19T03:53:42.959Z,27.70
2023-04-19T03:54:42.895Z,27.70
2023-04-19T03:55:42.927Z,27.77
2023-04-19T03:56:42.901Z,27.73
2023-04-19T03:57:42.878Z,27.72
2023-04-19T03:58:42.974Z,27.71
2023-04-19T03:59:42.896Z,27.71
2023-04-19T04:00:42.922Z,27.70
2023-04-19T04:01:43.048Z,27.74
2023-04-19T04:02:43.031Z,27.74
2023-04-19T04:03:43.377Z,27.78
2023-04-19T04:04:43.281Z,27.70
2023-04-19T04:05:42.985Z,27.73
2023-04-19T04:06:42.961Z,27.70
2023-04-19T04:07:42.937Z,27.71
2023-04-19T04:08:42.962Z,27.67
2023-04-19T04:09:42.936Z,27.74
2023-04-19T04:10:42.960Z,27.71
2023-04-19T04:11:42.942Z,27.71
2023-04-19T04:12:42.976Z,27.71
2023-04-19T04:13:42.940Z,27.71
2023-04-19T04:14:42.973Z,27.67
2023-04-19T04:15:42.969Z,27.71
2023-04-19T04:16:43.079Z,27.69
2023-04-19T04:17:42.994Z,27.71
2023-04-19T04:18:42.965Z,27.71
2023-04-19T04:19:42.984Z,27.74
2023-04-19T04:20:42.982Z,27.67
2023-04-19T04:21:42.981Z,27.73
2023-04-19T04:22:42.987Z,27.73
2023-04-19T04:23:43.015Z,27.71
2023-04-19T04:24:43.024Z,27.74
2023-04-19T04:25:43.030Z,27.70
2023-04-19T04:26:42.986Z,27.71
2023-04-19T04:27:42.969Z,27.73
2023-04-19T04:28:42.981Z,27.71
2023-04-19T04:29:43.021Z,27.74
2023-04-19T04:30:43.022Z,27.67
2023-04-19T04:31:43.041Z,27.73
2023-04-19T04:32:43.042Z,27.73
2023-04-19T04:33:43.009Z,27.70
2023-04-19T04:34:43.174Z,27.68
2023-04-19T04:35:43.050Z,27.71
2023-04-19T04:36:42.985Z,27.67
2023-04-19T04:37:43.022Z,27.72
2023-04-19T04:38:43.018Z,27.65
2023-04-19T04:39:43.036Z,27.70
2023-04-19T04:40:43.025Z,27.68
2023-04-19T04:41:43.039Z,27.71
2023-04-19T04:42:43.028Z,27.68
2023-04-19T04:43:43.033Z,27.66
2023-04-19T04:44:43.012Z,27.67
2023-04-19T04:45:43.057Z,27.73
2023-04-19T04:46:43.013Z,27.70
2023-04-19T04:47:43.024Z,27.69
2023-04-19T04:48:43.007Z,27.70
2023-04-19T04:49:43.040Z,27.70
2023-04-19T04:50:43.078Z,27.71
2023-04-19T04:51:43.055Z,27.70
2023-04-19T04:52:43.086Z,27.71
2023-04-19T04:53:43.059Z,27.80
2023-04-19T04:54:43.046Z,27.91
2023-04-19T04:55:43.041Z,27.99
2023-04-19T04:56:43.172Z,27.98
2023-04-19T04:57:43.131Z,28.07
2023-04-19T04:58:43.077Z,28.14
2023-04-19T04:59:43.068Z,28.26
2023-04-19T05:00:43.095Z,28.28
2023-04-19T05:01:43.236Z,28.32
2023-04-19T05:02:43.280Z,28.33
2023-04-19T05:03:43.189Z,28.36
2023-04-19T05:04:43.352Z,28.39
2023-04-19T05:05:44.960Z,28.38
2023-04-19T05:06:43.289Z,28.39
2023-04-19T05:07:43.300Z,28.39
2023-04-19T05:08:43.317Z,28.44
2023-04-19T05:09:43.412Z,28.45
2023-04-19T05:10:43.394Z,28.46
2023-04-19T05:11:43.426Z,28.51
2023-04-19T05:12:43.490Z,28.42
2023-04-19T05:13:43.516Z,28.50
2023-04-19T05:14:43.547Z,28.49
2023-04-19T05:15:43.599Z,28.46
2023-04-19T05:16:43.662Z,28.50
2023-04-19T05:17:43.694Z,28.49
2023-04-19T05:18:43.691Z,28.56
2023-04-19T05:19:43.789Z,28.52
2023-04-19T05:20:43.763Z,28.77
2023-04-19T05:21:43.767Z,29.22
2023-04-19T05:22:43.908Z,28.99
2023-04-19T05:23:43.882Z,28.96
2023-04-19T05:24:43.932Z,29.15
2023-04-19T05:25:43.964Z,29.08
2023-04-19T05:26:43.985Z,29.48
2023-04-19T05:27:44.041Z,29.49
2023-04-19T05:28:44.089Z,30.75
2023-04-19T05:29:44.125Z,30.13
2023-04-19T05:30:44.139Z,31.16
2023-04-19T05:31:44.254Z,30.26
2023-04-19T05:32:44.240Z,30.38
2023-04-19T05:33:44.280Z,30.45
2023-04-19T05:34:44.294Z,31.77
2023-04-19T05:35:44.299Z,32.91
2023-04-19T05:36:44.379Z,32.51
2023-04-19T05:37:44.402Z,31.93
2023-04-19T05:38:44.449Z,31.52
2023-04-19T05:39:44.901Z,32.08
2023-04-19T05:40:44.476Z,33.83
2023-04-19T05:41:44.533Z,33.64
2023-04-19T05:42:44.537Z,32.88
2023-04-19T05:43:44.679Z,32.74
2023-04-19T05:44:44.904Z,33.07
2023-04-19T05:45:44.743Z,33.11
2023-04-19T05:46:44.700Z,34.17
2023-04-19T05:47:44.773Z,33.85
2023-04-19T05:48:44.825Z,33.40
2023-04-19T05:49:44.823Z,34.84
2023-04-19T05:50:44.830Z,33.09
2023-04-19T05:51:44.870Z,33.94
2023-04-19T05:52:44.925Z,33.33
2023-04-19T05:53:44.966Z,32.74
2023-04-19T05:54:44.986Z,34.70
2023-04-19T05:55:44.983Z,33.47
2023-04-19T05:56:45.023Z,31.81
2023-04-19T05:57:45.016Z,32.72
2023-04-19T05:58:45.075Z,32.11
2023-04-19T05:59:45.147Z,31.46
2023-04-19T06:00:45.097Z,32.82
2023-04-19T06:01:45.210Z,32.37
2023-04-19T06:02:45.205Z,32.86
2023-04-19T06:03:45.298Z,31.87
2023-04-19T06:04:45.486Z,32.13
2023-04-19T06:05:45.276Z,32.99
2023-04-19T06:06:45.222Z,32.12
2023-04-19T06:07:54.592Z,31.61
2023-04-19T06:08:46.187Z,32.01
2023-04-19T06:09:45.224Z,31.53
2023-04-19T06:10:54.965Z,32.29
2023-04-19T06:11:50.793Z,31.66
2023-04-19T06:12:46.129Z,32.62
2023-04-19T06:13:45.143Z,32.09
2023-04-19T06:14:45.169Z,32.46
2023-04-19T06:15:45.115Z,32.28
2023-04-19T06:16:45.156Z,32.12
2023-04-19T06:17:45.157Z,32.18
2023-04-19T06:18:45.088Z,32.07
2023-04-19T06:19:45.097Z,32.53
2023-04-19T06:20:45.078Z,32.29
2023-04-19T06:21:45.104Z,32.40
2023-04-19T06:22:45.097Z,32.16
2023-04-19T06:23:45.051Z,32.34
2023-04-19T06:24:45.080Z,32.43
2023-04-19T06:25:45.063Z,32.39
2023-04-19T06:26:45.069Z,32.30
2023-04-19T06:27:45.081Z,31.88
2023-04-19T06:28:45.047Z,32.01
2023-04-19T06:29:45.056Z,31.99
2023-04-19T06:30:45.037Z,32.31
2023-04-19T06:31:45.068Z,32.03
2023-04-19T06:32:45.087Z,31.67
2023-04-19T06:33:45.073Z,32.05
2023-04-19T06:34:44.997Z,31.80
2023-04-19T06:35:44.982Z,31.66
2023-04-19T06:36:44.966Z,31.72
2023-04-19T06:37:44.984Z,32.04
2023-04-19T06:38:44.954Z,32.03
2023-04-19T06:39:44.962Z,32.13
2023-04-19T06:40:45.913Z,32.02
2023-04-19T06:41:44.972Z,31.94
2023-04-19T06:42:44.912Z,32.05
2023-04-19T06:43:45.094Z,32.12
2023-04-19T06:44:45.038Z,32.07
2023-04-19T06:45:45.089Z,31.81
2023-04-19T06:46:45.130Z,31.93
2023-04-19T06:47:45.243Z,31.78
2023-04-19T06:48:45.221Z,32.07
2023-04-19T06:49:45.510Z,32.02
2023-04-19T06:50:45.369Z,31.64
2023-04-19T06:51:45.443Z,31.99
2023-04-19T06:52:45.449Z,31.94
2023-04-19T06:53:45.511Z,32.15
2023-04-19T06:54:45.569Z,31.67
2023-04-19T06:55:45.621Z,31.59
2023-04-19T06:56:45.806Z,31.70
2023-04-19T06:57:45.742Z,31.76
2023-04-19T06:58:45.810Z,31.51
2023-04-19T06:59:45.843Z,31.62
2023-04-19T07:00:45.853Z,31.66
2023-04-19T07:01:46.060Z,31.79
2023-04-19T07:02:46.093Z,31.59
2023-04-19T07:03:46.316Z,31.58
2023-04-19T07:04:46.183Z,31.72
2023-04-19T07:05:46.502Z,31.39
2023-04-19T07:06:46.203Z,31.58
2023-04-19T07:07:46.238Z,31.56
2023-04-19T07:08:50.122Z,31.45
2023-04-19T07:09:46.323Z,31.61
2023-04-19T07:10:46.299Z,31.54
2023-04-19T07:11:46.265Z,31.57
2023-04-19T07:12:46.313Z,31.68
2023-04-19T07:13:46.322Z,31.56
2023-04-19T07:14:46.284Z,31.48
2023-04-19T07:15:46.265Z,32.15
2023-04-19T07:16:46.278Z,31.61
2023-04-19T07:17:46.272Z,31.75
2023-04-19T07:18:46.247Z,31.56
2023-04-19T07:19:46.226Z,31.65
2023-04-19T07:20:46.482Z,31.80
2023-04-19T07:21:46.292Z,31.83
2023-04-19T07:22:46.236Z,31.67
2023-04-19T07:23:46.217Z,31.66
2023-04-19T07:24:46.195Z,31.69
2023-04-19T07:25:46.425Z,31.32
2023-04-19T07:26:46.163Z,31.31
2023-04-19T07:27:47.061Z,31.59
2023-04-19T07:28:46.227Z,31.57
2023-04-19T07:29:46.155Z,31.24
2023-04-19T07:30:46.398Z,31.49
2023-04-19T07:31:46.219Z,31.34
2023-04-19T07:32:46.211Z,31.45
2023-04-19T07:33:46.155Z,31.28
2023-04-19T07:34:46.110Z,31.32
2023-04-19T07:35:46.158Z,31.40
2023-04-19T07:36:46.123Z,31.25
2023-04-19T07:37:46.118Z,31.16
2023-04-19T07:38:46.076Z,31.37
2023-04-19T07:39:46.095Z,31.38
2023-04-19T07:40:46.425Z,31.21
2023-04-19T07:41:46.150Z,31.20
2023-04-19T07:42:46.146Z,31.36
2023-04-19T07:43:46.157Z,31.29
2023-04-19T07:44:46.249Z,31.42
2023-04-19T07:45:46.431Z,31.41
2023-04-19T07:46:46.329Z,31.85
2023-04-19T07:47:46.316Z,31.90
2023-04-19T07:48:46.252Z,31.60
2023-04-19T07:49:46.267Z,31.41
2023-04-19T07:50:46.464Z,31.59
2023-04-19T07:51:46.274Z,31.48
2023-04-19T07:52:46.281Z,31.51
2023-04-19T07:53:46.300Z,31.70
2023-04-19T07:54:46.248Z,31.50
2023-04-19T07:55:46.308Z,31.96
2023-04-19T07:56:46.313Z,31.54
2023-04-19T07:57:46.262Z,31.54
2023-04-19T07:58:50.821Z,31.28
2023-04-19T07:59:47.301Z,31.31
2023-04-19T08:00:46.314Z,31.38
2023-04-19T08:01:46.333Z,31.53
2023-04-19T08:02:46.429Z,31.52
2023-04-19T08:03:46.588Z,31.61
2023-04-19T08:04:46.437Z,31.60
2023-04-19T08:05:46.363Z,31.47
2023-04-19T08:06:46.215Z,31.46
2023-04-19T08:07:46.237Z,31.58
2023-04-19T08:08:46.559Z,31.65
2023-04-19T08:09:46.246Z,31.47
2023-04-19T08:10:46.264Z,31.39
2023-04-19T08:11:46.388Z,31.59
2023-04-19T08:12:57.443Z,31.52
2023-04-19T08:14:02.574Z,31.46
2023-04-19T08:14:59.331Z,31.53
2023-04-19T08:17:46.391Z,31.38
2023-04-19T08:18:46.319Z,31.59
2023-04-19T08:19:46.341Z,31.72
2023-04-19T08:20:46.372Z,31.47
2023-04-19T08:21:46.315Z,31.38
2023-04-19T08:22:46.316Z,31.35
2023-04-19T08:23:48.545Z,31.31
2023-04-19T08:24:46.422Z,31.33
2023-04-19T08:25:46.431Z,31.30
2023-04-19T08:26:46.524Z,31.59
2023-04-19T08:27:46.548Z,31.30
2023-04-19T08:28:46.641Z,31.29
2023-04-19T08:29:46.679Z,31.31
2023-04-19T08:30:46.783Z,31.20
2023-04-19T08:31:46.794Z,31.29
2023-04-19T08:32:46.891Z,31.36
2023-04-19T08:33:46.889Z,31.35
2023-04-19T08:34:46.926Z,31.29
2023-04-19T08:35:46.964Z,31.24
2023-04-19T08:36:55.972Z,31.20
2023-04-19T08:37:48.039Z,31.18
2023-04-19T08:38:54.833Z,31.13
2023-04-19T08:39:48.022Z,31.27
2023-04-19T08:40:47.052Z,31.25
2023-04-19T08:41:52.896Z,31.44
2023-04-19T08:42:48.016Z,31.75
2023-04-19T08:43:46.988Z,31.66
2023-04-19T08:45:05.645Z,31.28
2023-04-19T08:45:48.071Z,31.20
2023-04-19T08:46:46.995Z,30.96
2023-04-19T08:47:58.755Z,30.46
2023-04-19T08:48:48.054Z,30.38
2023-04-19T08:49:47.618Z,30.27
2023-04-19T08:51:00.698Z,30.22
2023-04-19T08:51:47.948Z,30.16
2023-04-19T08:52:54.824Z,30.09
2023-04-19T08:53:47.950Z,29.95
2023-04-19T08:54:46.937Z,29.90
2023-04-19T08:56:03.461Z,29.71
2023-04-19T08:56:47.895Z,29.78
2023-04-19T08:57:46.983Z,30.04
2023-04-19T08:59:47.889Z,29.54
2023-04-19T09:00:47.559Z,29.46
2023-04-19T09:01:46.871Z,29.39
2023-04-19T09:02:47.815Z,29.47
2023-04-19T09:04:00.392Z,29.49
2023-04-19T09:04:48.138Z,29.22
2023-04-19T09:05:46.955Z,29.06
2023-04-19T09:06:46.822Z,28.97
2023-04-19T09:07:46.828Z,28.93
2023-04-19T09:08:46.818Z,29.02
2023-04-19T09:10:47.779Z,28.85
2023-04-19T09:11:46.763Z,28.80
2023-04-19T09:12:46.788Z,28.80
2023-04-19T09:13:46.796Z,28.71
2023-04-19T09:14:59.989Z,29.16
2023-04-19T09:15:47.778Z,28.68
2023-04-19T09:16:46.744Z,28.69
2023-04-19T09:17:46.737Z,28.51
2023-04-19T09:18:57.836Z,28.47
2023-04-19T09:19:47.872Z,28.45
2023-04-19T09:20:46.720Z,28.36
2023-04-19T09:21:46.704Z,28.55
2023-04-19T09:22:46.728Z,28.41
2023-04-19T09:23:46.689Z,28.49
2023-04-19T09:25:27.681Z,28.78
2023-04-19T09:26:47.672Z,28.27
2023-04-19T09:27:46.695Z,28.27
2023-04-19T09:28:46.659Z,28.39
2023-04-19T09:29:46.671Z,28.12
2023-04-19T09:30:57.017Z,28.25
2023-04-19T09:31:51.992Z,28.16
2023-04-19T09:32:46.713Z,28.10
2023-04-19T09:33:46.776Z,28.25
2023-04-19T09:34:46.621Z,28.05
2023-04-19T09:35:46.659Z,28.17
2023-04-19T09:36:46.848Z,28.07
2023-04-19T09:38:46.592Z,28.26
2023-04-19T09:39:46.598Z,28.01
2023-04-19T09:40:46.556Z,28.02
2023-04-19T09:41:46.575Z,28.00
2023-04-19T09:44:06.639Z,28.02
2023-04-19T09:45:17.063Z,27.92
2023-04-19T09:45:47.577Z,27.88
2023-04-19T09:46:46.608Z,27.93
2023-04-19T09:47:46.565Z,27.86
2023-04-19T09:48:46.536Z,27.84
2023-04-19T09:49:49.417Z,27.79
2023-04-19T09:50:56.953Z,27.74
2023-04-19T09:51:47.496Z,27.79
2023-04-19T09:52:46.525Z,27.75
2023-04-19T09:53:46.501Z,27.74
2023-04-19T09:54:46.453Z,27.72
2023-04-19T09:55:57.749Z,27.86
2023-04-19T09:56:47.472Z,27.93
2023-04-19T09:57:46.448Z,28.22
2023-04-19T09:58:52.745Z,28.10
2023-04-19T09:59:47.447Z,27.99
2023-04-19T10:00:49.995Z,28.12
2023-04-19T10:01:47.486Z,27.87
2023-04-19T10:02:46.453Z,28.03
2023-04-19T10:03:47.832Z,27.98
2023-04-19T10:05:46.533Z,28.08
2023-04-19T10:07:47.400Z,27.96
2023-04-19T10:08:46.375Z,28.02
2023-04-19T10:09:52.843Z,28.09
2023-04-19T10:10:47.413Z,27.98
2023-04-19T10:11:48.214Z,27.93
2023-04-19T10:13:47.383Z,27.91
2023-04-19T10:14:46.321Z,27.91
2023-04-19T10:15:52.728Z,27.90
2023-04-19T10:16:47.538Z,27.79
2023-04-19T10:17:46.353Z,27.71
2023-04-19T10:18:46.294Z,27.35
2023-04-19T10:19:46.301Z,27.37
2023-04-19T10:20:46.273Z,27.33
2023-04-19T10:21:46.522Z,27.32
2023-04-19T10:22:49.023Z,27.40
2023-04-19T10:23:46.269Z,27.70
2023-04-19T10:24:47.864Z,27.29
2023-04-19T10:25:46.249Z,27.29
2023-04-19T10:26:46.560Z,27.34
2023-04-19T10:27:46.249Z,27.33
2023-04-19T10:28:46.267Z,27.44
2023-04-19T10:29:46.224Z,27.26
2023-04-19T10:30:46.195Z,27.25
2023-04-19T10:31:46.553Z,27.24
2023-04-19T10:32:46.220Z,27.26
2023-04-19T10:33:46.192Z,27.45
2023-04-19T10:34:46.217Z,27.11
2023-04-19T10:35:46.208Z,27.19
2023-04-19T10:36:46.518Z,27.42
2023-04-19T10:37:46.325Z,27.18
2023-04-19T10:38:46.343Z,27.07
2023-04-19T10:39:46.396Z,26.99
2023-04-19T10:40:46.400Z,27.00
2023-04-19T10:41:46.612Z,27.04
2023-04-19T10:42:46.524Z,27.05
2023-04-19T10:43:46.590Z,26.94
2023-04-19T10:44:46.652Z,26.96
2023-04-19T10:45:46.723Z,27.05
2023-04-19T10:46:46.760Z,26.93
2023-04-19T10:47:46.858Z,26.87
2023-04-19T10:48:46.825Z,27.01
2023-04-19T10:49:46.910Z,26.90
2023-04-19T10:50:46.934Z,26.84
2023-04-19T10:51:47.053Z,26.87
2023-04-19T10:52:47.067Z,26.78
2023-04-19T10:53:47.080Z,26.72
2023-04-19T10:54:47.108Z,27.09
2023-04-19T10:55:47.208Z,26.78
2023-04-19T10:56:47.271Z,26.73
2023-04-19T10:57:47.319Z,26.80
2023-04-19T10:58:48.503Z,26.79
2023-04-19T10:59:47.404Z,26.80
2023-04-19T11:00:47.489Z,26.97
2023-04-19T11:01:47.613Z,26.69
2023-04-19T11:02:47.730Z,26.56
2023-04-19T11:03:47.789Z,26.66
2023-04-19T11:04:47.901Z,26.69
2023-04-19T11:05:47.810Z,26.72
2023-04-19T11:06:47.771Z,26.76
2023-04-19T11:07:47.806Z,26.71
2023-04-19T11:08:47.895Z,26.72
2023-04-19T11:09:47.934Z,26.68
2023-04-19T11:10:48.007Z,26.63
2023-04-19T11:11:48.031Z,26.69
2023-04-19T11:12:48.067Z,26.67
2023-04-19T11:13:48.169Z,26.69
2023-04-19T11:14:48.181Z,26.77
2023-04-19T11:15:48.276Z,26.66
2023-04-19T11:16:48.581Z,26.77
2023-04-19T11:17:52.878Z,26.77
2023-04-19T11:18:49.390Z,26.61
2023-04-19T11:19:48.344Z,26.65
2023-04-19T11:20:48.356Z,26.59
2023-04-19T11:21:48.370Z,26.54
2023-04-19T11:22:48.314Z,26.51
2023-04-19T11:23:48.319Z,26.70
2023-04-19T11:24:48.307Z,26.55
2023-04-19T11:25:48.287Z,26.57
2023-04-19T11:26:48.322Z,26.52
2023-04-19T11:27:48.271Z,26.57
2023-04-19T11:28:48.317Z,26.56
2023-04-19T11:29:48.368Z,26.61
2023-04-19T11:30:48.424Z,26.55
2023-04-19T11:31:48.626Z,26.59
2023-04-19T11:32:48.907Z,26.51
2023-04-19T11:33:48.617Z,26.51
2023-04-19T11:34:48.671Z,26.54
2023-04-19T11:35:48.731Z,26.66
2023-04-19T11:36:48.812Z,26.59
2023-04-19T11:37:48.917Z,26.51
2023-04-19T11:38:48.935Z,26.52
2023-04-19T11:39:49.075Z,26.44
2023-04-19T11:40:49.002Z,26.43
2023-04-19T11:41:49.102Z,26.51
2023-04-19T11:42:49.119Z,26.43
2023-04-19T11:43:49.211Z,26.47
2023-04-19T11:44:49.269Z,26.35
2023-04-19T11:45:49.352Z,26.33
2023-04-19T11:46:49.391Z,26.33
2023-04-19T11:47:49.481Z,26.35
2023-04-19T11:48:49.464Z,26.46
2023-04-19T11:49:49.528Z,26.28
2023-04-19T11:50:49.618Z,26.22
2023-04-19T11:51:49.686Z,26.18
2023-04-19T11:52:49.684Z,26.21
2023-04-19T11:53:49.767Z,26.21
2023-04-19T11:54:49.791Z,26.18
2023-04-19T11:55:49.859Z,26.18
2023-04-19T11:56:49.936Z,26.10
2023-04-19T11:57:50.014Z,26.04
2023-04-19T11:58:50.086Z,26.20
2023-04-19T11:59:50.114Z,25.96
2023-04-19T12:00:50.148Z,26.02
2023-04-19T12:01:50.196Z,25.93
2023-04-19T12:02:50.355Z,26.11
2023-04-19T12:03:50.618Z,25.96
2023-04-19T12:04:50.645Z,25.99
2023-04-19T12:05:50.429Z,26.02
2023-04-19T12:06:50.501Z,25.99
2023-04-19T12:07:50.528Z,26.07
2023-04-19T12:08:50.603Z,25.96
2023-04-19T12:09:50.645Z,25.99
2023-04-19T12:10:50.748Z,25.84
2023-04-19T12:11:50.761Z,25.80
2023-04-19T12:12:50.801Z,25.94
2023-04-19T12:13:50.892Z,25.77
2023-04-19T12:14:50.953Z,25.80
2023-04-19T12:15:50.996Z,25.82
2023-04-19T12:16:51.088Z,25.93
2023-04-19T12:17:56.982Z,25.74
2023-04-19T12:18:52.148Z,25.73
2023-04-19T12:19:51.067Z,25.76
2023-04-19T12:20:51.101Z,25.89
2023-04-19T12:21:51.126Z,25.68
2023-04-19T12:22:51.069Z,25.73
2023-04-19T12:23:51.103Z,25.71
2023-04-19T12:24:51.067Z,25.74
2023-04-19T12:25:51.095Z,25.70
2023-04-19T12:26:51.077Z,25.71
2023-04-19T12:27:51.039Z,25.74
2023-04-19T12:28:51.107Z,25.74
2023-04-19T12:29:51.205Z,25.81
2023-04-19T12:30:51.226Z,25.78
2023-04-19T12:31:51.318Z,25.93
2023-04-19T12:32:51.393Z,25.78
2023-04-19T12:33:51.406Z,25.84
2023-04-19T12:34:51.470Z,25.78
2023-04-19T12:35:51.524Z,25.82
2023-04-19T12:36:51.624Z,25.83
2023-04-19T12:37:51.652Z,25.79
2023-04-19T12:38:51.771Z,25.79
2023-04-19T12:39:51.773Z,25.85
2023-04-19T12:40:51.809Z,25.83
2023-04-19T12:41:51.921Z,25.93
2023-04-19T12:42:51.946Z,25.94
2023-04-19T12:43:52.012Z,25.93
2023-04-19T12:44:52.073Z,25.94
2023-04-19T12:45:52.138Z,25.92
2023-04-19T12:46:52.176Z,25.98
2023-04-19T12:47:52.229Z,25.96
2023-04-19T12:48:52.294Z,25.98
2023-04-19T12:49:52.312Z,26.04
2023-04-19T12:50:52.400Z,25.93
2023-04-19T12:51:53.137Z,25.97
2023-04-19T12:52:52.514Z,25.98
2023-04-19T12:53:52.593Z,26.04
2023-04-19T12:54:52.617Z,26.04
2023-04-19T12:55:52.686Z,25.94
2023-04-19T12:56:52.752Z,26.02
2023-04-19T12:57:52.896Z,26.00
2023-04-19T12:58:52.922Z,26.07
2023-04-19T12:59:52.930Z,26.04
2023-04-19T13:01:00.004Z,26.06
2023-04-19T13:01:53.048Z,26.09
2023-04-19T13:02:53.204Z,26.08